sensor_id;sensor_type;location;lat;lon;timestamp;P1;durP1;ratioP1;P2;durP2;ratioP2
48367;SDS011;34173;47.446;18.912;2022-12-18T00:01:23;54.17;;;21.98;;
48367;SDS011;34173;47.446;18.912;2022-12-18T00:03:53;48.55;;;19.62;;
48367;SDS011;34173;47.446;18.912;2022-12-18T00:06:23;49.50;;;21.60;;
48367;SDS011;34173;47.446;18.912;2022-12-18T00:08:52;50.47;;;21.95;;
48367;SDS011;34173;47.446;18.912;2022-12-18T00:11:20;54.17;;;22.27;;
48367;SDS011;34173;47.446;18.912;2022-12-18T00:13:49;51.88;;;22.85;;
48367;SDS011;34173;47.446;18.912;2022-12-18T00:16:19;56.92;;;22.73;;
48367;SDS011;34173;47.446;18.912;2022-12-18T00:18:49;47.65;;;20.55;;
48367;SDS011;34173;47.446;18.912;2022-12-18T00:21:17;48.42;;;20.40;;
48367;SDS011;34173;47.446;18.912;2022-12-18T00:23:45;49.83;;;21.17;;
48367;SDS011;34173;47.446;18.912;2022-12-18T00:26:15;56.17;;;22.45;;
48367;SDS011;34173;47.446;18.912;2022-12-18T00:28:44;42.45;;;18.37;;
48367;SDS011;34173;47.446;18.912;2022-12-18T00:31:14;49.80;;;20.37;;
48367;SDS011;34173;47.446;18.912;2022-12-18T00:33:44;49.35;;;20.30;;
48367;SDS011;34173;47.446;18.912;2022-12-18T00:38:40;49.17;;;17.90;;
48367;SDS011;34173;47.446;18.912;2022-12-18T00:41:08;48.20;;;20.02;;
48367;SDS011;34173;47.446;18.912;2022-12-18T00:43:37;40.83;;;20.37;;
48367;SDS011;34173;47.446;18.912;2022-12-18T00:46:06;52.17;;;21.08;;
48367;SDS011;34173;47.446;18.912;2022-12-18T00:48:35;44.67;;;19.35;;
48367;SDS011;34173;47.446;18.912;2022-12-18T00:51:03;50.95;;;18.48;;
48367;SDS011;34173;47.446;18.912;2022-12-18T00:53:31;51.20;;;21.92;;
48367;SDS011;34173;47.446;18.912;2022-12-18T00:55:58;54.25;;;19.62;;
48367;SDS011;34173;47.446;18.912;2022-12-18T00:58:26;47.95;;;19.12;;
48367;SDS011;34173;47.446;18.912;2022-12-18T01:00:53;56.63;;;24.10;;
48367;SDS011;34173;47.446;18.912;2022-12-18T01:03:21;55.80;;;22.62;;
48367;SDS011;34173;47.446;18.912;2022-12-18T01:05:48;57.10;;;22.58;;
48367;SDS011;34173;47.446;18.912;2022-12-18T01:08:18;53.53;;;22.55;;
48367;SDS011;34173;47.446;18.912;2022-12-18T01:10:45;57.58;;;22.40;;
48367;SDS011;34173;47.446;18.912;2022-12-18T01:13:13;51.50;;;22.60;;
48367;SDS011;34173;47.446;18.912;2022-12-18T01:15:47;48.53;;;21.83;;
48367;SDS011;34173;47.446;18.912;2022-12-18T01:18:16;50.90;;;22.48;;
48367;SDS011;34173;47.446;18.912;2022-12-18T01:20:43;51.30;;;23.38;;
48367;SDS011;34173;47.446;18.912;2022-12-18T01:23:11;51.15;;;21.60;;
48367;SDS011;34173;47.446;18.912;2022-12-18T01:25:38;48.67;;;22.35;;
48367;SDS011;34173;47.446;18.912;2022-12-18T01:28:07;52.55;;;22.52;;
48367;SDS011;34173;47.446;18.912;2022-12-18T01:30:35;60.83;;;24.23;;
48367;SDS011;34173;47.446;18.912;2022-12-18T01:33:05;51.30;;;21.62;;
48367;SDS011;34173;47.446;18.912;2022-12-18T01:35:39;51.33;;;22.05;;
48367;SDS011;34173;47.446;18.912;2022-12-18T01:38:08;51.42;;;22.00;;
48367;SDS011;34173;47.446;18.912;2022-12-18T01:40:35;50.72;;;20.98;;
48367;SDS011;34173;47.446;18.912;2022-12-18T01:43:03;52.05;;;22.20;;
48367;SDS011;34173;47.446;18.912;2022-12-18T01:45:31;53.78;;;20.48;;
48367;SDS011;34173;47.446;18.912;2022-12-18T01:47:59;47.72;;;20.52;;
48367;SDS011;34173;47.446;18.912;2022-12-18T01:50:37;50.58;;;21.70;;
48367;SDS011;34173;47.446;18.912;2022-12-18T01:53:07;53.70;;;23.62;;
48367;SDS011;34173;47.446;18.912;2022-12-18T01:55:40;50.90;;;22.92;;
48367;SDS011;34173;47.446;18.912;2022-12-18T01:58:11;48.28;;;21.98;;
48367;SDS011;34173;47.446;18.912;2022-12-18T02:00:38;55.50;;;23.92;;
48367;SDS011;34173;47.446;18.912;2022-12-18T02:03:06;56.47;;;22.60;;
48367;SDS011;34173;47.446;18.912;2022-12-18T02:13:46;57.83;;;23.35;;
48367;SDS011;34173;47.446;18.912;2022-12-18T02:27:57;58.35;;;23.58;;
48367;SDS011;34173;47.446;18.912;2022-12-18T02:30:28;60.00;;;24.40;;
48367;SDS011;34173;47.446;18.912;2022-12-18T02:32:57;56.97;;;23.67;;
48367;SDS011;34173;47.446;18.912;2022-12-18T02:35:25;57.90;;;24.27;;
48367;SDS011;34173;47.446;18.912;2022-12-18T02:37:55;55.63;;;23.75;;
48367;SDS011;34173;47.446;18.912;2022-12-18T02:40:24;60.08;;;25.80;;
48367;SDS011;34173;47.446;18.912;2022-12-18T02:42:54;59.72;;;24.63;;
48367;SDS011;34173;47.446;18.912;2022-12-18T02:45:23;59.30;;;25.20;;
48367;SDS011;34173;47.446;18.912;2022-12-18T02:47:51;59.05;;;24.02;;
48367;SDS011;34173;47.446;18.912;2022-12-18T02:53:01;53.97;;;25.00;;
48367;SDS011;34173;47.446;18.912;2022-12-18T03:01:16;60.20;;;23.77;;
48367;SDS011;34173;47.446;18.912;2022-12-18T03:03:49;53.05;;;21.58;;
48367;SDS011;34173;47.446;18.912;2022-12-18T03:06:26;56.75;;;22.33;;
48367;SDS011;34173;47.446;18.912;2022-12-18T03:08:58;49.83;;;21.83;;
48367;SDS011;34173;47.446;18.912;2022-12-18T03:11:28;50.58;;;21.35;;
48367;SDS011;34173;47.446;18.912;2022-12-18T03:14:18;49.55;;;20.23;;
48367;SDS011;34173;47.446;18.912;2022-12-18T03:16:49;48.72;;;20.45;;
48367;SDS011;34173;47.446;18.912;2022-12-18T03:19:20;50.33;;;21.33;;
48367;SDS011;34173;47.446;18.912;2022-12-18T03:21:51;52.75;;;21.33;;
48367;SDS011;34173;47.446;18.912;2022-12-18T03:24:22;52.92;;;22.42;;
48367;SDS011;34173;47.446;18.912;2022-12-18T03:26:56;49.40;;;20.37;;
48367;SDS011;34173;47.446;18.912;2022-12-18T03:29:29;54.78;;;21.95;;
48367;SDS011;34173;47.446;18.912;2022-12-18T03:32:30;51.80;;;22.17;;
48367;SDS011;34173;47.446;18.912;2022-12-18T03:35:00;52.55;;;21.92;;
48367;SDS011;34173;47.446;18.912;2022-12-18T03:37:31;55.63;;;22.35;;
48367;SDS011;34173;47.446;18.912;2022-12-18T03:39:59;48.15;;;21.37;;
48367;SDS011;34173;47.446;18.912;2022-12-18T03:45:19;51.08;;;22.55;;
48367;SDS011;34173;47.446;18.912;2022-12-18T03:50:51;56.30;;;21.67;;
48367;SDS011;34173;47.446;18.912;2022-12-18T03:53:26;51.08;;;22.17;;
48367;SDS011;34173;47.446;18.912;2022-12-18T03:56:00;53.55;;;22.10;;
48367;SDS011;34173;47.446;18.912;2022-12-18T03:58:30;52.80;;;21.92;;
48367;SDS011;34173;47.446;18.912;2022-12-18T04:01:01;50.63;;;21.48;;
48367;SDS011;34173;47.446;18.912;2022-12-18T04:03:31;56.03;;;23.15;;
48367;SDS011;34173;47.446;18.912;2022-12-18T04:05:59;49.75;;;21.75;;
48367;SDS011;34173;47.446;18.912;2022-12-18T04:08:28;55.50;;;23.10;;
48367;SDS011;34173;47.446;18.912;2022-12-18T04:10:57;58.85;;;23.70;;
48367;SDS011;34173;47.446;18.912;2022-12-18T04:13:27;58.90;;;23.02;;
48367;SDS011;34173;47.446;18.912;2022-12-18T04:15:57;52.05;;;22.05;;
48367;SDS011;34173;47.446;18.912;2022-12-18T04:18:25;63.42;;;24.83;;
48367;SDS011;34173;47.446;18.912;2022-12-18T04:20:53;60.67;;;23.73;;
48367;SDS011;34173;47.446;18.912;2022-12-18T04:23:22;50.88;;;22.02;;
48367;SDS011;34173;47.446;18.912;2022-12-18T04:25:50;58.90;;;23.73;;
48367;SDS011;34173;47.446;18.912;2022-12-18T04:28:18;54.55;;;23.12;;
48367;SDS011;34173;47.446;18.912;2022-12-18T04:30:48;56.63;;;24.42;;
48367;SDS011;34173;47.446;18.912;2022-12-18T04:33:15;50.80;;;22.62;;
48367;SDS011;34173;47.446;18.912;2022-12-18T04:35:44;53.30;;;24.05;;
48367;SDS011;34173;47.446;18.912;2022-12-18T04:38:12;58.83;;;23.85;;
48367;SDS011;34173;47.446;18.912;2022-12-18T04:40:40;59.80;;;24.02;;
48367;SDS011;34173;47.446;18.912;2022-12-18T04:43:10;56.70;;;22.87;;
48367;SDS011;34173;47.446;18.912;2022-12-18T04:45:38;58.05;;;23.30;;
48367;SDS011;34173;47.446;18.912;2022-12-18T04:48:06;52.15;;;23.27;;
48367;SDS011;34173;47.446;18.912;2022-12-18T04:50:34;57.58;;;22.77;;
48367;SDS011;34173;47.446;18.912;2022-12-18T04:53:02;49.72;;;23.10;;
48367;SDS011;34173;47.446;18.912;2022-12-18T04:55:29;56.30;;;23.40;;
48367;SDS011;34173;47.446;18.912;2022-12-18T04:57:57;52.58;;;21.90;;
48367;SDS011;34173;47.446;18.912;2022-12-18T05:00:26;59.50;;;24.40;;
48367;SDS011;34173;47.446;18.912;2022-12-18T05:02:54;56.17;;;23.50;;
48367;SDS011;34173;47.446;18.912;2022-12-18T05:05:21;58.78;;;24.33;;
48367;SDS011;34173;47.446;18.912;2022-12-18T05:07:49;60.33;;;23.98;;
48367;SDS011;34173;47.446;18.912;2022-12-18T05:10:16;58.87;;;25.52;;
48367;SDS011;34173;47.446;18.912;2022-12-18T05:12:45;57.85;;;24.50;;
48367;SDS011;34173;47.446;18.912;2022-12-18T05:15:31;61.85;;;24.95;;
48367;SDS011;34173;47.446;18.912;2022-12-18T05:17:59;61.60;;;23.90;;
48367;SDS011;34173;47.446;18.912;2022-12-18T05:20:27;53.38;;;22.80;;
48367;SDS011;34173;47.446;18.912;2022-12-18T05:22:55;50.75;;;22.67;;
48367;SDS011;34173;47.446;18.912;2022-12-18T05:25:23;54.78;;;21.80;;
48367;SDS011;34173;47.446;18.912;2022-12-18T05:27:50;49.72;;;21.75;;
48367;SDS011;34173;47.446;18.912;2022-12-18T05:30:18;57.17;;;23.27;;
48367;SDS011;34173;47.446;18.912;2022-12-18T05:32:45;56.40;;;23.27;;
48367;SDS011;34173;47.446;18.912;2022-12-18T05:35:13;55.83;;;22.05;;
48367;SDS011;34173;47.446;18.912;2022-12-18T05:37:40;50.28;;;21.23;;
48367;SDS011;34173;47.446;18.912;2022-12-18T05:40:09;59.50;;;23.62;;
48367;SDS011;34173;47.446;18.912;2022-12-18T05:42:37;51.80;;;20.75;;
48367;SDS011;34173;47.446;18.912;2022-12-18T05:45:05;53.40;;;21.70;;
48367;SDS011;34173;47.446;18.912;2022-12-18T05:47:33;58.10;;;22.73;;
48367;SDS011;34173;47.446;18.912;2022-12-18T05:50:02;54.95;;;23.50;;
48367;SDS011;34173;47.446;18.912;2022-12-18T05:52:30;55.88;;;23.87;;
48367;SDS011;34173;47.446;18.912;2022-12-18T05:54:57;51.13;;;21.73;;
48367;SDS011;34173;47.446;18.912;2022-12-18T05:57:26;55.20;;;22.17;;
48367;SDS011;34173;47.446;18.912;2022-12-18T05:59:53;46.35;;;20.90;;
48367;SDS011;34173;47.446;18.912;2022-12-18T06:02:21;50.58;;;20.73;;
48367;SDS011;34173;47.446;18.912;2022-12-18T06:04:49;54.05;;;21.65;;
48367;SDS011;34173;47.446;18.912;2022-12-18T06:07:16;46.83;;;20.33;;
48367;SDS011;34173;47.446;18.912;2022-12-18T06:09:44;49.17;;;20.58;;
48367;SDS011;34173;47.446;18.912;2022-12-18T06:12:12;55.30;;;21.95;;
48367;SDS011;34173;47.446;18.912;2022-12-18T06:14:39;55.65;;;22.25;;
48367;SDS011;34173;47.446;18.912;2022-12-18T06:17:06;57.80;;;23.58;;
48367;SDS011;34173;47.446;18.912;2022-12-18T06:19:34;54.38;;;23.85;;
48367;SDS011;34173;47.446;18.912;2022-12-18T06:22:02;57.38;;;25.48;;
48367;SDS011;34173;47.446;18.912;2022-12-18T06:24:29;55.15;;;24.70;;
48367;SDS011;34173;47.446;18.912;2022-12-18T06:26:57;55.78;;;24.23;;
48367;SDS011;34173;47.446;18.912;2022-12-18T06:29:24;55.35;;;23.67;;
48367;SDS011;34173;47.446;18.912;2022-12-18T06:31:52;52.70;;;22.87;;
48367;SDS011;34173;47.446;18.912;2022-12-18T06:34:19;54.80;;;22.20;;
48367;SDS011;34173;47.446;18.912;2022-12-18T06:36:47;57.00;;;22.15;;
48367;SDS011;34173;47.446;18.912;2022-12-18T06:39:14;52.78;;;22.00;;
48367;SDS011;34173;47.446;18.912;2022-12-18T06:41:42;56.10;;;22.05;;
48367;SDS011;34173;47.446;18.912;2022-12-18T06:44:09;50.83;;;21.02;;
48367;SDS011;34173;47.446;18.912;2022-12-18T06:46:37;55.10;;;21.85;;
48367;SDS011;34173;47.446;18.912;2022-12-18T06:49:05;54.20;;;22.25;;
48367;SDS011;34173;47.446;18.912;2022-12-18T06:51:33;56.55;;;21.58;;
48367;SDS011;34173;47.446;18.912;2022-12-18T06:54:00;51.22;;;22.95;;
48367;SDS011;34173;47.446;18.912;2022-12-18T06:56:28;52.50;;;22.52;;
48367;SDS011;34173;47.446;18.912;2022-12-18T06:58:55;57.70;;;24.40;;
48367;SDS011;34173;47.446;18.912;2022-12-18T07:01:23;59.65;;;23.70;;
48367;SDS011;34173;47.446;18.912;2022-12-18T07:03:51;54.78;;;22.15;;
48367;SDS011;34173;47.446;18.912;2022-12-18T07:06:23;60.47;;;23.08;;
48367;SDS011;34173;47.446;18.912;2022-12-18T07:08:52;54.78;;;22.33;;
48367;SDS011;34173;47.446;18.912;2022-12-18T07:11:21;55.78;;;21.73;;
48367;SDS011;34173;47.446;18.912;2022-12-18T07:13:48;54.22;;;22.20;;
48367;SDS011;34173;47.446;18.912;2022-12-18T07:16:19;50.10;;;21.55;;
48367;SDS011;34173;47.446;18.912;2022-12-18T07:18:52;51.50;;;22.45;;
48367;SDS011;34173;47.446;18.912;2022-12-18T07:21:20;55.10;;;22.75;;
48367;SDS011;34173;47.446;18.912;2022-12-18T07:23:48;51.35;;;21.48;;
48367;SDS011;34173;47.446;18.912;2022-12-18T07:26:17;53.53;;;21.98;;
48367;SDS011;34173;47.446;18.912;2022-12-18T07:28:46;54.70;;;24.60;;
48367;SDS011;34173;47.446;18.912;2022-12-18T07:31:15;54.42;;;23.65;;
48367;SDS011;34173;47.446;18.912;2022-12-18T07:33:44;58.60;;;24.33;;
48367;SDS011;34173;47.446;18.912;2022-12-18T07:36:13;59.00;;;24.33;;
48367;SDS011;34173;47.446;18.912;2022-12-18T07:38:40;52.78;;;23.02;;
48367;SDS011;34173;47.446;18.912;2022-12-18T07:41:09;61.58;;;26.73;;
48367;SDS011;34173;47.446;18.912;2022-12-18T07:43:38;58.13;;;24.98;;
48367;SDS011;34173;47.446;18.912;2022-12-18T07:46:08;58.58;;;23.87;;
48367;SDS011;34173;47.446;18.912;2022-12-18T07:48:38;57.13;;;25.73;;
48367;SDS011;34173;47.446;18.912;2022-12-18T07:51:06;64.80;;;26.92;;
48367;SDS011;34173;47.446;18.912;2022-12-18T07:53:34;64.70;;;25.70;;
48367;SDS011;34173;47.446;18.912;2022-12-18T07:56:04;62.53;;;27.30;;
48367;SDS011;34173;47.446;18.912;2022-12-18T07:58:53;63.58;;;26.92;;
48367;SDS011;34173;47.446;18.912;2022-12-18T08:01:21;60.75;;;25.48;;
48367;SDS011;34173;47.446;18.912;2022-12-18T08:03:49;58.80;;;26.35;;
48367;SDS011;34173;47.446;18.912;2022-12-18T08:06:19;62.08;;;26.55;;
48367;SDS011;34173;47.446;18.912;2022-12-18T08:08:53;68.15;;;27.27;;
48367;SDS011;34173;47.446;18.912;2022-12-18T08:11:22;69.30;;;29.73;;
48367;SDS011;34173;47.446;18.912;2022-12-18T08:13:51;72.55;;;30.08;;
48367;SDS011;34173;47.446;18.912;2022-12-18T08:16:18;68.45;;;29.75;;
48367;SDS011;34173;47.446;18.912;2022-12-18T08:18:46;68.50;;;27.55;;
48367;SDS011;34173;47.446;18.912;2022-12-18T08:21:16;63.17;;;28.67;;
48367;SDS011;34173;47.446;18.912;2022-12-18T08:23:47;65.07;;;27.02;;
48367;SDS011;34173;47.446;18.912;2022-12-18T08:26:17;71.53;;;30.60;;
48367;SDS011;34173;47.446;18.912;2022-12-18T08:28:45;67.72;;;29.48;;
48367;SDS011;34173;47.446;18.912;2022-12-18T08:31:14;68.32;;;29.20;;
48367;SDS011;34173;47.446;18.912;2022-12-18T08:33:41;67.07;;;27.58;;
48367;SDS011;34173;47.446;18.912;2022-12-18T08:36:10;65.82;;;27.37;;
48367;SDS011;34173;47.446;18.912;2022-12-18T08:38:37;62.55;;;27.20;;
48367;SDS011;34173;47.446;18.912;2022-12-18T08:41:06;63.13;;;27.58;;
48367;SDS011;34173;47.446;18.912;2022-12-18T08:43:37;59.90;;;26.17;;
48367;SDS011;34173;47.446;18.912;2022-12-18T08:46:24;66.68;;;26.27;;
48367;SDS011;34173;47.446;18.912;2022-12-18T08:48:53;63.35;;;26.67;;
48367;SDS011;34173;47.446;18.912;2022-12-18T08:51:21;61.60;;;26.05;;
48367;SDS011;34173;47.446;18.912;2022-12-18T08:53:49;55.95;;;25.80;;
48367;SDS011;34173;47.446;18.912;2022-12-18T08:56:16;65.32;;;28.33;;
48367;SDS011;34173;47.446;18.912;2022-12-18T08:58:43;62.00;;;27.20;;
48367;SDS011;34173;47.446;18.912;2022-12-18T09:01:11;63.87;;;26.42;;
48367;SDS011;34173;47.446;18.912;2022-12-18T09:03:39;64.60;;;27.70;;
48367;SDS011;34173;47.446;18.912;2022-12-18T09:06:07;58.63;;;25.73;;
48367;SDS011;34173;47.446;18.912;2022-12-18T09:08:35;58.95;;;25.52;;
48367;SDS011;34173;47.446;18.912;2022-12-18T09:11:04;56.95;;;23.95;;
48367;SDS011;34173;47.446;18.912;2022-12-18T09:13:31;53.80;;;25.33;;
48367;SDS011;34173;47.446;18.912;2022-12-18T09:15:59;53.05;;;22.95;;
48367;SDS011;34173;47.446;18.912;2022-12-18T09:18:26;53.13;;;22.55;;
48367;SDS011;34173;47.446;18.912;2022-12-18T09:20:54;54.08;;;23.45;;
48367;SDS011;34173;47.446;18.912;2022-12-18T09:23:22;58.63;;;23.92;;
48367;SDS011;34173;47.446;18.912;2022-12-18T09:25:49;50.00;;;23.45;;
48367;SDS011;34173;47.446;18.912;2022-12-18T09:28:17;52.53;;;21.85;;
48367;SDS011;34173;47.446;18.912;2022-12-18T09:30:46;57.53;;;23.48;;
48367;SDS011;34173;47.446;18.912;2022-12-18T09:33:16;53.55;;;23.85;;
48367;SDS011;34173;47.446;18.912;2022-12-18T09:35:44;58.28;;;24.65;;
48367;SDS011;34173;47.446;18.912;2022-12-18T09:38:16;52.70;;;23.27;;
48367;SDS011;34173;47.446;18.912;2022-12-18T09:43:18;56.10;;;21.92;;
48367;SDS011;34173;47.446;18.912;2022-12-18T09:45:49;56.08;;;22.20;;
48367;SDS011;34173;47.446;18.912;2022-12-18T09:48:21;53.40;;;21.40;;
48367;SDS011;34173;47.446;18.912;2022-12-18T09:50:53;57.03;;;23.38;;
48367;SDS011;34173;47.446;18.912;2022-12-18T09:53:24;50.50;;;20.92;;
48367;SDS011;34173;47.446;18.912;2022-12-18T09:55:54;55.12;;;22.08;;
48367;SDS011;34173;47.446;18.912;2022-12-18T09:58:27;55.90;;;23.58;;
48367;SDS011;34173;47.446;18.912;2022-12-18T10:00:58;51.80;;;21.27;;
48367;SDS011;34173;47.446;18.912;2022-12-18T10:03:25;49.00;;;20.05;;
48367;SDS011;34173;47.446;18.912;2022-12-18T10:06:02;50.78;;;20.60;;
48367;SDS011;34173;47.446;18.912;2022-12-18T10:08:44;42.97;;;19.60;;
48367;SDS011;34173;47.446;18.912;2022-12-18T10:14:20;42.20;;;18.77;;
48367;SDS011;34173;47.446;18.912;2022-12-18T10:19:50;52.92;;;19.83;;
48367;SDS011;34173;47.446;18.912;2022-12-18T10:25:22;43.83;;;19.70;;
48367;SDS011;34173;47.446;18.912;2022-12-18T10:27:53;41.50;;;19.30;;
48367;SDS011;34173;47.446;18.912;2022-12-18T10:30:24;48.38;;;19.33;;
48367;SDS011;34173;47.446;18.912;2022-12-18T10:32:52;48.20;;;20.40;;
48367;SDS011;34173;47.446;18.912;2022-12-18T10:35:23;46.30;;;19.87;;
48367;SDS011;34173;47.446;18.912;2022-12-18T10:38:03;43.28;;;18.15;;
48367;SDS011;34173;47.446;18.912;2022-12-18T10:40:33;45.20;;;19.87;;
48367;SDS011;34173;47.446;18.912;2022-12-18T10:43:15;45.88;;;19.08;;
48367;SDS011;34173;47.446;18.912;2022-12-18T10:45:43;45.22;;;20.23;;
48367;SDS011;34173;47.446;18.912;2022-12-18T10:48:26;42.53;;;18.70;;
48367;SDS011;34173;47.446;18.912;2022-12-18T10:50:54;44.55;;;18.98;;
48367;SDS011;34173;47.446;18.912;2022-12-18T10:53:40;46.08;;;19.85;;
48367;SDS011;34173;47.446;18.912;2022-12-18T10:56:09;46.75;;;18.70;;
48367;SDS011;34173;47.446;18.912;2022-12-18T10:58:37;48.10;;;20.02;;
48367;SDS011;34173;47.446;18.912;2022-12-18T11:03:44;43.28;;;17.55;;
48367;SDS011;34173;47.446;18.912;2022-12-18T11:06:21;38.72;;;16.58;;
48367;SDS011;34173;47.446;18.912;2022-12-18T11:11:27;39.03;;;16.90;;
48367;SDS011;34173;47.446;18.912;2022-12-18T11:16:22;40.35;;;16.08;;
48367;SDS011;34173;47.446;18.912;2022-12-18T11:18:51;36.17;;;14.87;;
48367;SDS011;34173;47.446;18.912;2022-12-18T11:21:18;33.25;;;14.63;;
48367;SDS011;34173;47.446;18.912;2022-12-18T11:23:52;33.33;;;14.30;;
48367;SDS011;34173;47.446;18.912;2022-12-18T11:26:20;40.15;;;15.65;;
48367;SDS011;34173;47.446;18.912;2022-12-18T11:29:10;37.95;;;16.40;;
48367;SDS011;34173;47.446;18.912;2022-12-18T11:31:46;37.88;;;15.05;;
48367;SDS011;34173;47.446;18.912;2022-12-18T11:34:27;32.25;;;14.15;;
48367;SDS011;34173;47.446;18.912;2022-12-18T11:36:58;38.45;;;15.00;;
48367;SDS011;34173;47.446;18.912;2022-12-18T11:42:01;36.72;;;14.55;;
48367;SDS011;34173;47.446;18.912;2022-12-18T11:44:49;37.55;;;14.82;;
48367;SDS011;34173;47.446;18.912;2022-12-18T11:47:21;38.75;;;15.73;;
48367;SDS011;34173;47.446;18.912;2022-12-18T11:49:52;38.85;;;17.20;;
48367;SDS011;34173;47.446;18.912;2022-12-18T11:52:22;39.20;;;15.65;;
48367;SDS011;34173;47.446;18.912;2022-12-18T11:54:52;36.58;;;14.82;;
48367;SDS011;34173;47.446;18.912;2022-12-18T11:57:45;37.47;;;15.50;;
48367;SDS011;34173;47.446;18.912;2022-12-18T12:00:26;33.15;;;14.82;;
48367;SDS011;34173;47.446;18.912;2022-12-18T12:05:53;39.58;;;16.37;;
48367;SDS011;34173;47.446;18.912;2022-12-18T12:16:28;35.50;;;15.25;;
48367;SDS011;34173;47.446;18.912;2022-12-18T12:30:18;29.83;;;14.07;;
48367;SDS011;34173;47.446;18.912;2022-12-18T12:35:52;34.90;;;13.57;;
48367;SDS011;34173;47.446;18.912;2022-12-18T12:41:06;33.50;;;14.25;;
48367;SDS011;34173;47.446;18.912;2022-12-18T12:43:57;32.05;;;13.05;;
48367;SDS011;34173;47.446;18.912;2022-12-18T12:46:27;32.45;;;13.68;;
48367;SDS011;34173;47.446;18.912;2022-12-18T12:48:59;29.85;;;13.50;;
48367;SDS011;34173;47.446;18.912;2022-12-18T12:51:37;29.80;;;12.93;;
48367;SDS011;34173;47.446;18.912;2022-12-18T12:54:11;27.85;;;12.85;;
48367;SDS011;34173;47.446;18.912;2022-12-18T12:56:54;34.15;;;13.75;;
48367;SDS011;34173;47.446;18.912;2022-12-18T13:05:01;25.58;;;11.88;;
48367;SDS011;34173;47.446;18.912;2022-12-18T13:07:37;28.25;;;13.10;;
48367;SDS011;34173;47.446;18.912;2022-12-18T13:10:12;26.62;;;12.50;;
48367;SDS011;34173;47.446;18.912;2022-12-18T13:20:38;32.28;;;12.77;;
48367;SDS011;34173;47.446;18.912;2022-12-18T13:26:28;34.45;;;14.20;;
48367;SDS011;34173;47.446;18.912;2022-12-18T13:28:56;34.33;;;15.10;;
48367;SDS011;34173;47.446;18.912;2022-12-18T13:36:55;36.58;;;17.00;;
48367;SDS011;34173;47.446;18.912;2022-12-18T13:39:31;33.45;;;15.05;;
48367;SDS011;34173;47.446;18.912;2022-12-18T13:48:19;39.67;;;18.33;;
48367;SDS011;34173;47.446;18.912;2022-12-18T13:50:56;55.25;;;26.40;;
48367;SDS011;34173;47.446;18.912;2022-12-18T13:53:27;54.30;;;25.08;;
48367;SDS011;34173;47.446;18.912;2022-12-18T13:55:58;47.78;;;21.20;;
48367;SDS011;34173;47.446;18.912;2022-12-18T13:58:26;43.08;;;20.80;;
48367;SDS011;34173;47.446;18.912;2022-12-18T14:00:54;54.30;;;26.37;;
48367;SDS011;34173;47.446;18.912;2022-12-18T14:03:23;53.60;;;27.42;;
48367;SDS011;34173;47.446;18.912;2022-12-18T14:06:00;46.90;;;22.33;;
48367;SDS011;34173;47.446;18.912;2022-12-18T14:08:32;37.83;;;18.65;;
48367;SDS011;34173;47.446;18.912;2022-12-18T14:11:02;47.55;;;19.23;;
48367;SDS011;34173;47.446;18.912;2022-12-18T14:13:32;36.63;;;16.55;;
48367;SDS011;34173;47.446;18.912;2022-12-18T14:16:04;39.92;;;19.12;;
48367;SDS011;34173;47.446;18.912;2022-12-18T14:18:36;42.65;;;18.27;;
48367;SDS011;34173;47.446;18.912;2022-12-18T14:21:20;41.53;;;18.15;;
48367;SDS011;34173;47.446;18.912;2022-12-18T14:24:02;42.90;;;19.50;;
48367;SDS011;34173;47.446;18.912;2022-12-18T14:26:31;47.00;;;18.87;;
48367;SDS011;34173;47.446;18.912;2022-12-18T14:29:01;43.13;;;19.37;;
48367;SDS011;34173;47.446;18.912;2022-12-18T14:31:46;44.95;;;20.00;;
48367;SDS011;34173;47.446;18.912;2022-12-18T14:34:44;45.33;;;19.17;;
48367;SDS011;34173;47.446;18.912;2022-12-18T14:37:13;49.42;;;21.27;;
48367;SDS011;34173;47.446;18.912;2022-12-18T14:39:52;45.95;;;19.75;;
48367;SDS011;34173;47.446;18.912;2022-12-18T14:42:26;47.05;;;22.33;;
48367;SDS011;34173;47.446;18.912;2022-12-18T14:45:31;49.75;;;24.25;;
48367;SDS011;34173;47.446;18.912;2022-12-18T14:48:11;53.13;;;25.15;;
48367;SDS011;34173;47.446;18.912;2022-12-18T14:50:57;75.37;;;33.03;;
48367;SDS011;34173;47.446;18.912;2022-12-18T14:53:41;115.85;;;49.63;;
48367;SDS011;34173;47.446;18.912;2022-12-18T14:56:28;75.62;;;36.22;;
48367;SDS011;34173;47.446;18.912;2022-12-18T14:59:01;86.75;;;38.88;;
48367;SDS011;34173;47.446;18.912;2022-12-18T15:01:34;74.00;;;33.80;;
48367;SDS011;34173;47.446;18.912;2022-12-18T15:06:47;114.12;;;48.55;;
48367;SDS011;34173;47.446;18.912;2022-12-18T15:09:33;102.35;;;44.17;;
48367;SDS011;34173;47.446;18.912;2022-12-18T15:12:02;103.85;;;42.85;;
48367;SDS011;34173;47.446;18.912;2022-12-18T15:17:05;136.02;;;58.70;;
48367;SDS011;34173;47.446;18.912;2022-12-18T15:19:44;171.90;;;72.35;;
48367;SDS011;34173;47.446;18.912;2022-12-18T15:24:49;103.38;;;43.92;;
48367;SDS011;34173;47.446;18.912;2022-12-18T15:27:30;79.07;;;37.65;;
48367;SDS011;34173;47.446;18.912;2022-12-18T15:32:38;102.57;;;44.70;;
48367;SDS011;34173;47.446;18.912;2022-12-18T15:37:37;190.23;;;68.10;;
48367;SDS011;34173;47.446;18.912;2022-12-18T15:40:07;167.95;;;60.80;;
48367;SDS011;34173;47.446;18.912;2022-12-18T15:42:40;213.30;;;72.10;;
48367;SDS011;34173;47.446;18.912;2022-12-18T15:45:27;176.27;;;69.03;;
48367;SDS011;34173;47.446;18.912;2022-12-18T15:48:14;130.10;;;49.85;;
48367;SDS011;34173;47.446;18.912;2022-12-18T15:50:46;151.50;;;58.70;;
48367;SDS011;34173;47.446;18.912;2022-12-18T15:53:15;137.88;;;62.08;;
48367;SDS011;34173;47.446;18.912;2022-12-18T15:55:43;166.73;;;76.93;;
48367;SDS011;34173;47.446;18.912;2022-12-18T15:58:31;200.87;;;84.37;;
48367;SDS011;34173;47.446;18.912;2022-12-18T16:01:00;266.83;;;96.15;;
48367;SDS011;34173;47.446;18.912;2022-12-18T16:03:29;175.40;;;80.55;;
48367;SDS011;34173;47.446;18.912;2022-12-18T16:05:58;165.98;;;76.57;;
48367;SDS011;34173;47.446;18.912;2022-12-18T16:08:31;145.38;;;65.65;;
48367;SDS011;34173;47.446;18.912;2022-12-18T16:11:00;190.73;;;80.87;;
48367;SDS011;34173;47.446;18.912;2022-12-18T16:13:29;440.33;;;148.35;;
48367;SDS011;34173;47.446;18.912;2022-12-18T16:15:59;276.12;;;101.87;;
48367;SDS011;34173;47.446;18.912;2022-12-18T16:18:28;180.50;;;75.72;;
48367;SDS011;34173;47.446;18.912;2022-12-18T16:20:56;169.85;;;68.15;;
48367;SDS011;34173;47.446;18.912;2022-12-18T16:23:28;172.27;;;69.70;;
48367;SDS011;34173;47.446;18.912;2022-12-18T16:25:56;179.10;;;68.60;;
48367;SDS011;34173;47.446;18.912;2022-12-18T16:28:25;98.75;;;43.22;;
48367;SDS011;34173;47.446;18.912;2022-12-18T16:30:54;106.22;;;47.67;;
48367;SDS011;34173;47.446;18.912;2022-12-18T16:33:23;123.38;;;51.78;;
48367;SDS011;34173;47.446;18.912;2022-12-18T16:35:52;144.40;;;60.45;;
48367;SDS011;34173;47.446;18.912;2022-12-18T16:38:21;136.32;;;61.35;;